Time;durP1;ratioP1;P1;durP2;ratioP2;P2;SDS_P1;SDS_P2;PMS_P1;PMS_P2;Temp;Humidity;BMP_temperature;BMP_pressure;BME280_temperature;BME280_humidity;BME280_pressure;Samples;Min_cycle;Max_cycle;Signal;HPM_P1;HPM_P2
2023/01/16 00:00:48;;;;;;;4.80;1.93;;;4.10;99.90;;;;;;5076495;28;20074;-70
2023/01/16 00:03:14;;;;;;;5.13;2.57;;;4.00;99.90;;;;;;5065543;28;20719;-70
2023/01/16 00:05:39;;;;;;;5.43;2.27;;;4.00;99.90;;;;;;5073229;28;20039;-71
2023/01/16 00:08:05;;;;;;;6.40;2.27;;;4.10;99.90;;;;;;5068751;28;20052;-70
2023/01/16 00:10:31;;;;;;;6.17;2.50;;;4.10;99.90;;;;;;5059818;28;20051;-70
2023/01/16 00:12:56;;;;;;;5.43;2.83;;;4.10;99.90;;;;;;5059561;28;20040;-70
2023/01/16 00:15:22;;;;;;;5.90;3.37;;;4.10;99.90;;;;;;5075361;28;20048;-70
2023/01/16 00:17:49;;;;;;;10.20;3.43;;;4.10;99.90;;;;;;5058230;28;20037;-70
2023/01/16 00:20:15;;;;;;;10.32;4.20;;;4.10;99.90;;;;;;5066336;28;20064;-70
2023/01/16 00:22:41;;;;;;;7.97;4.00;;;4.10;99.90;;;;;;5069848;28;20067;-70
2023/01/16 00:25:07;;;;;;;8.53;4.10;;;4.10;99.90;;;;;;5064985;28;20090;-70
2023/01/16 00:27:33;;;;;;;8.55;4.43;;;4.10;99.90;;;;;;5064238;28;20040;-70
2023/01/16 00:29:59;;;;;;;8.33;4.03;;;4.00;99.90;;;;;;5083381;28;20055;-70
2023/01/16 00:32:24;;;;;;;7.57;3.93;;;4.10;99.90;;;;;;5095796;28;20045;-70
2023/01/16 00:34:50;;;;;;;7.57;4.33;;;4.10;99.90;;;;;;5073624;28;20044;-70
2023/01/16 00:37:16;;;;;;;9.40;4.37;;;4.10;99.90;;;;;;5067291;28;20040;-70
2023/01/16 00:39:42;;;;;;;9.70;4.70;;;4.00;99.90;;;;;;5089559;28;20040;-70
2023/01/16 00:42:07;;;;;;;9.33;5.00;;;4.00;99.90;;;;;;5086995;28;20044;-70
2023/01/16 00:44:33;;;;;;;9.17;5.10;;;4.00;99.90;;;;;;5098306;28;20064;-70
2023/01/16 00:46:59;;;;;;;7.60;4.47;;;4.00;99.90;;;;;;5067148;28;20082;-70
2023/01/16 00:49:25;;;;;;;9.47;4.83;;;3.90;99.90;;;;;;5077617;28;20037;-70
2023/01/16 00:51:50;;;;;;;8.20;4.80;;;3.90;99.90;;;;;;5097051;28;20488;-70
2023/01/16 00:54:16;;;;;;;8.87;4.47;;;3.90;99.90;;;;;;5082735;28;20048;-70
2023/01/16 00:56:41;;;;;;;10.40;4.80;;;3.90;99.90;;;;;;5097728;28;20116;-70
2023/01/16 00:59:07;;;;;;;6.47;4.20;;;3.80;99.90;;;;;;5084225;28;20048;-70
2023/01/16 01:01:33;;;;;;;10.90;4.20;;;3.80;99.90;;;;;;5095213;28;20067;-70
2023/01/16 01:03:59;;;;;;;6.63;4.27;;;3.70;99.90;;;;;;5082341;28;20063;-71
2023/01/16 01:06:25;;;;;;;13.10;4.28;;;3.70;99.90;;;;;;5090244;28;20037;-70
2023/01/16 01:08:51;;;;;;;8.03;3.77;;;3.70;99.90;;;;;;5097127;28;20040;-70
2023/01/16 01:11:16;;;;;;;9.10;4.07;;;3.60;99.90;;;;;;5078575;28;20505;-70
2023/01/16 01:13:43;;;;;;;8.50;4.60;;;3.60;99.90;;;;;;5068392;28;20036;-71
2023/01/16 01:16:09;;;;;;;9.05;4.43;;;3.60;99.90;;;;;;5092584;28;20076;-71
2023/01/16 01:18:35;;;;;;;6.85;4.13;;;3.60;99.90;;;;;;5081896;28;20176;-70
2023/01/16 01:21:01;;;;;;;9.35;4.40;;;3.60;99.90;;;;;;5101366;28;20074;-70
2023/01/16 01:23:27;;;;;;;7.30;4.33;;;3.60;99.90;;;;;;5081430;28;20379;-70
2023/01/16 01:25:53;;;;;;;9.33;4.40;;;3.60;99.90;;;;;;5067128;28;20032;-70
2023/01/16 01:28:19;;;;;;;8.80;4.50;;;3.60;99.90;;;;;;5078697;28;20044;-71
2023/01/16 01:30:45;;;;;;;7.22;4.22;;;3.60;99.90;;;;;;5079806;28;20472;-71
2023/01/16 01:33:11;;;;;;;11.02;4.20;;;3.60;99.90;;;;;;5098264;28;20101;-71
2023/01/16 01:35:37;;;;;;;9.03;4.20;;;3.60;99.90;;;;;;5068832;28;20043;-71
2023/01/16 01:38:04;;;;;;;10.93;4.60;;;3.60;99.90;;;;;;5083553;28;20051;-71
2023/01/16 01:40:30;;;;;;;9.77;4.22;;;3.60;99.90;;;;;;5081051;28;20028;-71
2023/01/16 01:42:55;;;;;;;8.60;4.50;;;3.60;99.90;;;;;;5068340;28;20043;-71
2023/01/16 01:45:26;;;;;;;11.30;4.60;;;3.50;99.90;;;;;;5082722;28;20089;-71
2023/01/16 01:47:58;;;;;;;10.05;4.45;;;3.50;99.90;;;;;;5087460;28;20070;-71
2023/01/16 01:50:44;;;;;;;8.32;4.35;;;3.50;99.90;;;;;;5081524;28;20036;-71
2023/01/16 01:53:16;;;;;;;10.35;3.97;;;3.50;99.90;;;;;;5085981;28;20043;-71
2023/01/16 01:55:45;;;;;;;9.40;4.38;;;3.50;99.90;;;;;;5096295;28;20059;-71
2023/01/16 01:58:16;;;;;;;8.73;4.82;;;3.50;99.90;;;;;;5086825;28;20447;-71
2023/01/16 02:00:42;;;;;;;11.18;4.00;;;3.40;99.90;;;;;;5098761;28;20054;-71
2023/01/16 02:03:14;;;;;;;12.02;4.20;;;3.40;99.90;;;;;;5067714;28;20036;-71
2023/01/16 02:05:45;;;;;;;11.98;5.05;;;3.40;99.90;;;;;;5097212;28;20068;-71
2023/01/16 02:08:14;;;;;;;9.57;3.80;;;3.40;99.90;;;;;;5099483;28;20044;-71
2023/01/16 02:10:55;;;;;;;9.35;4.13;;;3.40;99.90;;;;;;5103897;28;20099;-71
2023/01/16 02:13:21;;;;;;;8.40;3.78;;;3.40;99.90;;;;;;5098793;28;20115;-71
2023/01/16 02:22:01;;;;;;;6.78;3.92;;;3.20;99.90;;;;;;5025978;28;20065;-71
2023/01/16 02:24:50;;;;;;;9.00;3.85;;;3.10;99.90;;;;;;5092322;28;20040;-70
2023/01/16 02:27:46;;;;;;;10.65;3.72;;;3.00;99.90;;;;;;5073030;28;20040;-71
2023/01/16 02:30:29;;;;;;;7.07;3.35;;;2.90;99.90;;;;;;5087165;28;20040;-71
2023/01/16 02:33:01;;;;;;;11.65;4.18;;;2.90;99.90;;;;;;5084850;28;20037;-71
2023/01/16 02:35:53;;;;;;;8.43;4.18;;;2.90;99.90;;;;;;5092379;28;20100;-71
2023/01/16 02:38:41;;;;;;;10.75;4.20;;;2.90;99.90;;;;;;5099149;28;20048;-71
2023/01/16 02:41:31;;;;;;;7.68;4.20;;;2.90;99.90;;;;;;5092755;28;20060;-71
2023/01/16 02:44:17;;;;;;;9.98;4.18;;;2.90;99.90;;;;;;5089770;28;20039;-71
2023/01/16 02:47:05;;;;;;;9.07;3.75;;;2.90;99.90;;;;;;5091662;28;20048;-71
2023/01/16 02:49:48;;;;;;;9.77;4.40;;;2.90;99.90;;;;;;5083751;28;20094;-71
2023/01/16 02:52:34;;;;;;;8.65;4.15;;;2.90;99.90;;;;;;5080565;28;20044;-71
2023/01/16 02:55:12;;;;;;;8.75;4.65;;;2.90;99.90;;;;;;5093307;28;20193;-71
2023/01/16 02:57:43;;;;;;;13.15;5.47;;;3.00;99.90;;;;;;5085025;28;20381;-71
2023/01/16 03:00:10;;;;;;;9.93;5.70;;;3.00;99.90;;;;;;5089742;28;20514;-71
2023/01/16 03:02:36;;;;;;;8.27;4.88;;;2.90;99.90;;;;;;5090915;28;20051;-71
2023/01/16 03:05:02;;;;;;;9.70;5.27;;;2.90;99.90;;;;;;5076479;28;20036;-71
2023/01/16 03:08:06;;;;;;;10.07;5.25;;;2.90;99.90;;;;;;5084116;28;20078;-71
2023/01/16 03:10:48;;;;;;;14.38;6.15;;;2.70;99.90;;;;;;5067294;28;20062;-71
2023/01/16 03:13:34;;;;;;;10.48;5.38;;;2.60;99.90;;;;;;5080198;28;20104;-71
2023/01/16 03:16:09;;;;;;;12.05;5.65;;;2.50;99.90;;;;;;5079816;28;20098;-71
2023/01/16 03:18:45;;;;;;;11.38;5.63;;;2.50;99.90;;;;;;5103339;28;20364;-71
2023/01/16 03:21:13;;;;;;;11.10;6.15;;;2.40;99.90;;;;;;5100318;28;20120;-71
2023/01/16 03:23:56;;;;;;;12.98;5.78;;;2.30;99.90;;;;;;5099933;28;20040;-71
2023/01/16 03:26:36;;;;;;;12.50;6.30;;;2.20;99.90;;;;;;5108899;28;20047;-71
2023/01/16 03:29:17;;;;;;;12.57;6.03;;;2.20;99.90;;;;;;5104256;28;20040;-71
2023/01/16 03:31:55;;;;;;;11.55;6.43;;;2.20;99.90;;;;;;5104674;28;20043;-71
2023/01/16 03:34:50;;;;;;;14.82;6.75;;;2.30;99.90;;;;;;5098975;28;20687;-71
2023/01/16 03:37:22;;;;;;;13.55;6.97;;;2.40;99.90;;;;;;5084081;28;20109;-71
2023/01/16 03:39:55;;;;;;;13.43;6.63;;;2.50;99.90;;;;;;5097005;28;20032;-70
2023/01/16 03:42:28;;;;;;;15.95;7.22;;;2.60;99.90;;;;;;5095845;28;20051;-70
2023/01/16 03:45:01;;;;;;;16.45;7.60;;;2.70;99.90;;;;;;5087772;28;20598;-71
2023/01/16 03:47:34;;;;;;;14.95;7.15;;;2.70;99.90;;;;;;5096299;28;20071;-71
2023/01/16 03:50:04;;;;;;;12.88;6.82;;;2.80;99.90;;;;;;5087641;28;20037;-71
2023/01/16 03:52:44;;;;;;;12.52;7.30;;;2.90;99.90;;;;;;5089813;28;20044;-71
2023/01/16 03:55:17;;;;;;;15.15;7.50;;;2.90;99.90;;;;;;5104999;28;20070;-71
2023/01/16 03:57:51;;;;;;;14.32;8.18;;;3.00;99.90;;;;;;5088347;28;20050;-71
2023/01/16 04:00:18;;;;;;;13.35;7.93;;;3.00;99.90;;;;;;5089865;28;20054;-71
2023/01/16 04:03:13;;;;;;;12.98;7.13;;;3.10;99.90;;;;;;5068037;28;20066;-71
2023/01/16 04:05:42;;;;;;;11.90;7.43;;;3.10;99.90;;;;;;5089468;28;20051;-71
2023/01/16 04:08:24;;;;;;;15.95;8.13;;;3.20;99.90;;;;;;5101898;28;20044;-71
2023/01/16 04:10:52;;;;;;;16.60;9.68;;;3.20;99.90;;;;;;5089725;28;20044;-71
2023/01/16 04:13:22;;;;;;;16.05;8.75;;;3.20;99.90;;;;;;5079798;28;20037;-71
2023/01/16 04:15:52;;;;;;;15.50;9.93;;;3.30;99.90;;;;;;5096635;28;20520;-71
2023/01/16 04:18:20;;;;;;;16.42;9.55;;;3.30;99.90;;;;;;5086199;28;20044;-71
2023/01/16 04:20:49;;;;;;;16.27;10.18;;;3.30;99.90;;;;;;5087425;28;20092;-71
2023/01/16 04:23:16;;;;;;;16.27;9.40;;;3.40;99.90;;;;;;5084385;28;20039;-71
2023/01/16 04:25:42;;;;;;;19.80;9.65;;;3.40;99.90;;;;;;5062564;28;20036;-71
2023/01/16 04:28:08;;;;;;;18.15;10.45;;;3.50;99.90;;;;;;5075340;28;20086;-71
2023/01/16 04:30:33;;;;;;;19.60;10.93;;;3.40;99.90;;;;;;5077654;28;20043;-71
2023/01/16 04:33:03;;;;;;;21.40;10.93;;;3.40;99.90;;;;;;5045768;28;20301;-71
2023/01/16 04:35:29;;;;;;;17.25;10.60;;;3.40;99.90;;;;;;5088662;28;20040;-71
2023/01/16 04:37:55;;;;;;;20.02;10.93;;;3.40;99.90;;;;;;5095755;28;20051;-71
2023/01/16 04:40:21;;;;;;;22.17;12.20;;;3.40;99.90;;;;;;5087725;28;20415;-71
2023/01/16 04:42:47;;;;;;;21.10;11.27;;;3.50;99.90;;;;;;5098178;28;20032;-71
2023/01/16 04:45:13;;;;;;;18.58;10.75;;;3.50;99.90;;;;;;5075812;28;20040;-71
2023/01/16 04:47:38;;;;;;;18.13;11.40;;;3.50;99.90;;;;;;5077032;28;20048;-71
2023/01/16 04:50:05;;;;;;;19.57;11.77;;;3.50;99.90;;;;;;5074796;28;20076;-71
2023/01/16 04:52:30;;;;;;;20.95;12.00;;;3.40;99.90;;;;;;5062311;28;20492;-71
2023/01/16 04:54:56;;;;;;;22.13;11.30;;;3.40;99.90;;;;;;5071573;28;20040;-71
2023/01/16 04:57:22;;;;;;;19.07;10.90;;;3.40;99.90;;;;;;5076204;28;20333;-71
2023/01/16 04:59:48;;;;;;;22.40;11.63;;;3.40;99.90;;;;;;5063591;28;20101;-71
2023/01/16 05:02:13;;;;;;;22.50;12.20;;;3.40;99.90;;;;;;5081123;28;20036;-71
2023/01/16 05:04:39;;;;;;;22.67;11.20;;;3.40;99.90;;;;;;5069476;28;20035;-71
2023/01/16 05:07:05;;;;;;;18.63;11.27;;;3.30;99.90;;;;;;5086392;28;20545;-71
2023/01/16 05:09:30;;;;;;;23.73;11.33;;;3.20;99.90;;;;;;5103365;28;20040;-71
2023/01/16 05:11:56;;;;;;;20.03;11.37;;;3.10;99.90;;;;;;5087205;28;20238;-71
2023/01/16 05:14:22;;;;;;;17.87;10.83;;;3.00;99.90;;;;;;5080791;28;20044;-71
2023/01/16 05:16:47;;;;;;;22.33;12.10;;;3.00;99.90;;;;;;5085630;28;20044;-71
2023/01/16 05:19:13;;;;;;;20.80;11.13;;;3.00;99.90;;;;;;5088429;28;20032;-71
2023/01/16 05:21:39;;;;;;;20.87;11.77;;;2.90;99.90;;;;;;5102784;28;20040;-71
2023/01/16 05:24:05;;;;;;;24.27;11.93;;;2.80;99.90;;;;;;5087524;28;20097;-71
2023/01/16 05:26:30;;;;;;;23.23;12.10;;;2.70;99.90;;;;;;5087654;28;20044;-71
2023/01/16 05:28:57;;;;;;;19.33;11.57;;;2.60;99.90;;;;;;5070628;28;20042;-71
2023/01/16 05:31:23;;;;;;;27.25;14.02;;;2.50;99.90;;;;;;5083321;28;20048;-72
2023/01/16 05:33:49;;;;;;;22.20;12.23;;;2.50;99.90;;;;;;5070685;28;20043;-72
2023/01/16 05:36:14;;;;;;;23.00;12.27;;;2.40;99.90;;;;;;5087925;28;20071;-72
2023/01/16 05:38:40;;;;;;;30.00;12.50;;;2.40;99.90;;;;;;5085609;28;20093;-72
2023/01/16 05:41:06;;;;;;;22.73;11.67;;;2.30;99.90;;;;;;5087899;28;20055;-72
2023/01/16 05:43:31;;;;;;;26.20;12.93;;;2.30;99.90;;;;;;5073474;28;20061;-72
2023/01/16 05:45:57;;;;;;;22.77;12.53;;;2.40;99.90;;;;;;5106683;28;20103;-72
2023/01/16 05:48:23;;;;;;;23.70;13.53;;;2.40;99.90;;;;;;5102328;28;20106;-72
2023/01/16 05:50:50;;;;;;;24.43;14.53;;;2.40;99.90;;;;;;5085993;28;20073;-72
2023/01/16 05:53:16;;;;;;;24.98;14.60;;;2.50;99.90;;;;;;5090940;28;20293;-71
2023/01/16 05:55:44;;;;;;;27.47;14.50;;;2.50;99.90;;;;;;5090011;28;20040;-71
2023/01/16 05:58:11;;;;;;;23.85;13.85;;;2.60;99.90;;;;;;5105343;28;20075;-71
2023/01/16 06:00:38;;;;;;;28.55;13.82;;;2.70;99.90;;;;;;5095033;28;20108;-71
2023/01/16 06:03:04;;;;;;;24.80;12.77;;;2.70;99.90;;;;;;5084186;28;20127;-71
2023/01/16 06:05:30;;;;;;;26.52;13.73;;;2.70;99.90;;;;;;5090923;28;20041;-71
2023/01/16 06:07:56;;;;;;;26.93;12.67;;;2.70;99.90;;;;;;5064881;28;20047;-71
2023/01/16 06:10:22;;;;;;;25.13;13.00;;;2.70;99.90;;;;;;5095798;28;20036;-71
2023/01/16 06:12:48;;;;;;;23.85;12.13;;;2.60;99.90;;;;;;5105447;28;20043;-71
2023/01/16 06:15:13;;;;;;;23.50;12.43;;;2.60;99.90;;;;;;5107463;28;20064;-71
2023/01/16 06:17:39;;;;;;;25.03;12.30;;;2.60;99.90;;;;;;5071000;28;20458;-71
2023/01/16 06:20:05;;;;;;;24.00;12.00;;;2.60;99.90;;;;;;5086601;28;20024;-71
2023/01/16 06:22:31;;;;;;;21.47;11.13;;;2.50;99.90;;;;;;5104817;28;20044;-71
2023/01/16 06:24:56;;;;;;;24.73;11.00;;;2.50;99.90;;;;;;5073464;28;20032;-71
2023/01/16 06:27:22;;;;;;;21.10;11.27;;;2.40;99.90;;;;;;5095816;28;20217;-71
2023/01/16 06:29:48;;;;;;;24.97;11.37;;;2.40;99.90;;;;;;5102056;28;20047;-71
2023/01/16 06:32:16;;;;;;;22.15;11.60;;;2.40;99.90;;;;;;5085624;28;20104;-71
2023/01/16 06:34:42;;;;;;;19.75;10.60;;;2.30;99.90;;;;;;5087347;28;20047;-71
2023/01/16 06:37:08;;;;;;;20.60;10.60;;;2.30;99.90;;;;;;5111448;28;20076;-71
2023/01/16 06:39:34;;;;;;;19.10;10.00;;;2.30;99.90;;;;;;5111293;28;20046;-71
2023/01/16 06:42:00;;;;;;;20.90;10.47;;;2.30;99.90;;;;;;5105232;28;20048;-71
2023/01/16 06:44:26;;;;;;;19.30;10.32;;;2.30;99.90;;;;;;5077650;28;20092;-71
2023/01/16 06:46:52;;;;;;;18.33;9.27;;;2.30;99.90;;;;;;5091283;28;20048;-71
2023/01/16 06:49:17;;;;;;;17.40;9.53;;;2.30;99.90;;;;;;5081868;28;20050;-71
2023/01/16 06:51:43;;;;;;;19.20;9.13;;;2.30;99.90;;;;;;5093014;28;20040;-71
2023/01/16 06:54:09;;;;;;;23.08;10.70;;;2.30;99.90;;;;;;5109672;28;20050;-71
2023/01/16 06:56:35;;;;;;;20.35;10.07;;;2.30;99.90;;;;;;5072053;28;20036;-71
2023/01/16 06:59:01;;;;;;;18.90;9.77;;;2.30;99.90;;;;;;5099653;28;20039;-71
2023/01/16 07:01:27;;;;;;;23.30;9.90;;;2.30;99.90;;;;;;5109069;28;20047;-71
2023/01/16 07:03:52;;;;;;;20.67;9.40;;;2.40;99.90;;;;;;5083528;28;20086;-71
2023/01/16 07:06:18;;;;;;;20.60;9.53;;;2.40;99.90;;;;;;5073413;28;20036;-71
2023/01/16 07:08:44;;;;;;;21.57;9.87;;;2.40;99.90;;;;;;5088179;28;20586;-71
2023/01/16 07:11:10;;;;;;;27.33;9.70;;;2.50;99.90;;;;;;5081828;28;20047;-71
2023/01/16 07:13:36;;;;;;;20.33;9.23;;;2.50;99.90;;;;;;5110753;28;20040;-71
2023/01/16 07:24:23;;;;;;;17.42;8.85;;;2.30;99.90;;;;;;5107272;28;20074;-71
2023/01/16 07:26:57;;;;;;;19.77;8.73;;;2.30;99.90;;;;;;5108762;28;20047;-71
2023/01/16 07:29:23;;;;;;;18.65;7.97;;;2.20;99.90;;;;;;5108096;28;20047;-71
2023/01/16 07:31:49;;;;;;;15.07;7.32;;;2.20;99.90;;;;;;5091770;28;20029;-73
2023/01/16 07:34:15;;;;;;;15.07;6.73;;;2.20;99.90;;;;;;5075153;28;20036;-73
2023/01/16 07:36:40;;;;;;;16.03;7.80;;;2.20;99.90;;;;;;5089388;28;20055;-73
2023/01/16 07:39:06;;;;;;;16.83;7.13;;;2.20;99.90;;;;;;5105356;28;20047;-73
2023/01/16 07:41:32;;;;;;;12.50;7.00;;;2.10;99.90;;;;;;5106442;28;20236;-73
2023/01/16 07:43:57;;;;;;;15.10;6.40;;;2.10;99.90;;;;;;5105651;28;20054;-72
2023/01/16 07:46:23;;;;;;;16.47;6.50;;;2.10;99.90;;;;;;5105864;28;20040;-72
2023/01/16 07:48:53;;;;;;;13.93;5.43;;;2.20;99.90;;;;;;5107114;28;20063;-73
2023/01/16 07:51:19;;;;;;;11.95;5.68;;;2.10;99.90;;;;;;5093406;28;20047;-72
2023/01/16 07:53:45;;;;;;;15.00;6.30;;;2.20;99.90;;;;;;5103525;28;20036;-73
2023/01/16 07:56:11;;;;;;;15.73;5.93;;;2.20;99.90;;;;;;5066781;28;20036;-73
2023/01/16 07:58:39;;;;;;;11.30;5.60;;;2.10;99.90;;;;;;5088516;28;20044;-72
2023/01/16 08:01:05;;;;;;;12.63;5.88;;;2.20;99.90;;;;;;5104816;28;20060;-73
2023/01/16 08:03:31;;;;;;;11.82;5.75;;;2.20;99.90;;;;;;5089570;28;20522;-73
2023/01/16 08:05:58;;;;;;;13.43;5.80;;;2.20;99.90;;;;;;5104374;28;20032;-73
2023/01/16 08:08:28;;;;;;;14.20;5.47;;;2.20;99.90;;;;;;5103130;28;20051;-72
2023/01/16 08:10:58;;;;;;;10.55;4.60;;;2.20;99.90;;;;;;5104051;28;20426;-74
2023/01/16 08:13:24;;;;;;;10.80;5.00;;;2.20;99.90;;;;;;5096849;28;20056;-73
2023/01/16 08:15:50;;;;;;;15.05;4.97;;;2.20;99.90;;;;;;5075466;28;20043;-73
2023/01/16 08:18:18;;;;;;;11.55;4.63;;;2.20;99.90;;;;;;5093042;28;20040;-73
2023/01/16 08:20:44;;;;;;;11.45;4.97;;;2.30;99.90;;;;;;5087782;28;20032;-73
2023/01/16 08:23:11;;;;;;;14.07;4.72;;;2.30;99.90;;;;;;5095077;28;20077;-72
2023/01/16 08:25:37;;;;;;;15.18;5.03;;;2.30;99.90;;;;;;5094036;28;20028;-72
2023/01/16 08:28:03;;;;;;;10.93;5.10;;;2.30;99.90;;;;;;5072104;28;20099;-72
2023/01/16 08:30:29;;;;;;;15.10;5.20;;;2.30;99.90;;;;;;5090909;28;20040;-73
2023/01/16 08:33:01;;;;;;;11.60;3.97;;;2.30;99.90;;;;;;5084268;28;20107;-73
2023/01/16 08:35:28;;;;;;;10.20;4.72;;;2.40;99.90;;;;;;5086860;28;20067;-73
2023/01/16 08:37:53;;;;;;;13.73;4.10;;;2.40;99.90;;;;;;5086689;28;20051;-73
2023/01/16 08:40:20;;;;;;;12.93;4.30;;;2.40;99.90;;;;;;5102106;28;20036;-73
2023/01/16 08:51:25;;;;;;;14.13;4.40;;;2.70;99.90;;;;;;5101996;28;20087;-73
2023/01/16 08:53:55;;;;;;;11.57;4.57;;;2.70;99.90;;;;;;5102485;28;20040;-73
2023/01/16 08:56:22;;;;;;;10.82;4.20;;;2.80;99.90;;;;;;5106705;28;20043;-74
2023/01/16 08:58:47;;;;;;;10.10;4.32;;;2.80;99.90;;;;;;5106859;28;20040;-73
2023/01/16 09:01:13;;;;;;;11.83;4.40;;;2.80;99.90;;;;;;5104338;28;20051;-73
2023/01/16 09:03:39;;;;;;;9.03;4.30;;;2.80;99.90;;;;;;5090299;28;20040;-74
2023/01/16 09:06:05;;;;;;;10.93;4.00;;;2.90;99.90;;;;;;5105843;28;20099;-73
2023/01/16 09:08:31;;;;;;;12.43;4.78;;;2.90;99.90;;;;;;5092159;28;20415;-73
2023/01/16 09:13:49;;;;;;;10.80;4.82;;;3.00;99.90;;;;;;5102395;28;20048;-73
2023/01/16 09:16:18;;;;;;;9.00;4.22;;;3.00;99.90;;;;;;5102627;28;20048;-73
2023/01/16 09:18:43;;;;;;;10.35;4.60;;;3.00;99.90;;;;;;5101270;28;20047;-73
2023/01/16 09:21:09;;;;;;;14.33;4.60;;;3.00;99.90;;;;;;5099004;28;20040;-72
2023/01/16 09:23:35;;;;;;;12.50;4.93;;;3.10;99.90;;;;;;5099911;28;20038;-72
2023/01/16 09:26:01;;;;;;;10.90;4.80;;;3.10;99.90;;;;;;5083947;28;20499;-73
2023/01/16 09:28:26;;;;;;;11.37;4.60;;;3.10;99.90;;;;;;5100669;28;20099;-73
2023/01/16 09:30:52;;;;;;;8.77;4.20;;;3.10;99.90;;;;;;5081955;28;20066;-72
2023/01/16 09:33:18;;;;;;;10.83;4.77;;;3.10;99.90;;;;;;5097183;28;20051;-72
2023/01/16 09:35:43;;;;;;;10.07;4.47;;;3.10;99.90;;;;;;5099834;28;20064;-72
2023/01/16 09:38:09;;;;;;;12.17;4.70;;;3.10;99.90;;;;;;5081233;28;20036;-72
2023/01/16 09:40:35;;;;;;;8.60;4.03;;;3.20;99.90;;;;;;5082383;28;20071;-72
2023/01/16 09:43:35;;;;;;;11.02;4.47;;;3.20;99.90;;;;;;5081979;28;20043;-72
2023/01/16 09:46:04;;;;;;;8.32;4.30;;;3.20;99.90;;;;;;5082662;28;20041;-72
2023/01/16 09:48:33;;;;;;;9.50;4.72;;;3.20;99.90;;;;;;5091785;28;20044;-72
2023/01/16 09:51:14;;;;;;;8.40;4.53;;;3.20;99.90;;;;;;5066478;28;20098;-72
2023/01/16 09:59:46;;;;;;;10.73;4.85;;;3.20;99.90;;;;;;5092508;28;20416;-72
2023/01/16 10:02:19;;;;;;;10.30;4.60;;;3.20;99.90;;;;;;5094426;28;20096;-72
2023/01/16 10:04:46;;;;;;;13.32;4.97;;;3.20;99.90;;;;;;5107018;28;20028;-72
2023/01/16 10:07:21;;;;;;;11.38;4.32;;;3.20;99.90;;;;;;5072866;28;20039;-72
2023/01/16 10:10:01;;;;;;;9.65;4.13;;;3.20;99.90;;;;;;5109767;28;20075;-72
2023/01/16 10:12:35;;;;;;;8.93;4.38;;;3.20;99.90;;;;;;5111598;28;20036;-72
2023/01/16 10:15:11;;;;;;;9.90;4.32;;;3.20;99.90;;;;;;5110812;28;20036;-72
2023/01/16 10:17:58;;;;;;;8.57;4.25;;;3.20;99.90;;;;;;5112832;28;20392;-72
2023/01/16 10:20:49;;;;;;;9.32;4.50;;;3.20;99.90;;;;;;5091031;28;20050;-72
2023/01/16 10:23:54;;;;;;;12.40;3.92;;;3.20;99.90;;;;;;5086493;28;20080;-72
2023/01/16 10:26:28;;;;;;;5.85;3.10;;;3.20;99.90;;;;;;5103368;28;20050;-72
2023/01/16 10:29:08;;;;;;;9.02;3.42;;;3.20;99.90;;;;;;5112654;28;20051;-72
2023/01/16 10:31:40;;;;;;;8.15;3.42;;;3.20;99.90;;;;;;5095102;28;20051;-72
2023/01/16 10:34:25;;;;;;;5.57;2.60;;;3.10;99.90;;;;;;5111217;28;20122;-72
2023/01/16 10:36:54;;;;;;;8.65;2.78;;;3.10;99.90;;;;;;5094316;28;20096;-72
2023/01/16 10:39:21;;;;;;;5.55;3.15;;;3.10;99.90;;;;;;5111460;28;20040;-72
2023/01/16 10:50:39;;;;;;;4.10;1.90;;;3.00;99.90;;;;;;5070120;28;20048;-72
2023/01/16 10:53:07;;;;;;;4.95;1.83;;;3.00;99.90;;;;;;5109516;28;20042;-72
2023/01/16 10:55:37;;;;;;;4.75;2.03;;;2.90;99.90;;;;;;5108095;28;20081;-73
2023/01/16 10:58:06;;;;;;;4.82;1.65;;;2.80;99.90;;;;;;5085035;28;20415;-73
2023/01/16 11:00:38;;;;;;;2.22;1.33;;;2.80;99.90;;;;;;5106749;28;20060;-73
2023/01/16 11:03:28;;;;;;;4.45;1.67;;;2.70;99.90;;;;;;5107144;28;20051;-73
2023/01/16 11:06:13;;;;;;;3.38;1.88;;;2.70;99.90;;;;;;5108443;28;20036;-73
2023/01/16 11:08:42;;;;;;;3.17;1.33;;;2.70;99.90;;;;;;5109796;28;20040;-73
2023/01/16 11:20:27;;;;;;;1.80;0.95;;;2.70;99.90;;;;;;5109198;28;20036;-72
2023/01/16 11:22:58;;;;;;;2.03;1.10;;;2.60;99.90;;;;;;5109614;28;20077;-72
2023/01/16 11:25:27;;;;;;;2.75;1.20;;;2.60;99.90;;;;;;5110184;28;20095;-72
2023/01/16 11:27:56;;;;;;;2.58;1.30;;;2.60;99.90;;;;;;5090344;28;20044;-72
2023/01/16 11:30:32;;;;;;;1.75;1.13;;;2.50;99.90;;;;;;5108909;28;20090;-72
2023/01/16 11:32:58;;;;;;;2.42;1.35;;;2.50;99.90;;;;;;5108875;28;20047;-72
2023/01/16 11:35:34;;;;;;;2.58;1.60;;;2.50;99.90;;;;;;5108651;28;20040;-73
2023/01/16 11:38:02;;;;;;;2.75;1.40;;;2.60;99.90;;;;;;5107985;28;20036;-72
2023/01/16 11:40:33;;;;;;;3.08;1.60;;;2.60;99.90;;;;;;5095335;28;20036;-72
2023/01/16 11:46:02;;;;;;;3.35;1.58;;;2.60;99.90;;;;;;5105000;28;20036;-72
2023/01/16 11:48:34;;;;;;;2.80;1.40;;;2.60;99.90;;;;;;5107046;28;20074;-72
2023/01/16 11:51:03;;;;;;;2.90;1.50;;;2.60;99.90;;;;;;5096298;28;20040;-72
2023/01/16 11:53:32;;;;;;;2.70;1.48;;;2.60;99.90;;;;;;5094281;28;20107;-72
2023/01/16 11:56:13;;;;;;;3.25;1.58;;;2.60;99.90;;;;;;5091623;28;20055;-72
2023/01/16 11:59:06;;;;;;;2.50;1.52;;;2.60;99.90;;;;;;5107071;28;20108;-72
2023/01/16 12:04:33;;;;;;;2.60;1.75;;;2.60;99.90;;;;;;5107994;28;20044;-72
2023/01/16 12:07:19;;;;;;;2.65;2.05;;;2.50;99.90;;;;;;5107363;28;20123;-72
2023/01/16 12:10:18;;;;;;;2.88;1.60;;;2.60;99.90;;;;;;5085254;28;20041;-73
2023/01/16 12:16:05;;;;;;;2.20;1.60;;;2.50;99.90;;;;;;5100684;28;20507;-74
2023/01/16 12:18:38;;;;;;;2.70;1.80;;;2.50;99.90;;;;;;5106616;28;20078;-73
2023/01/16 12:21:15;;;;;;;2.72;1.92;;;2.50;99.90;;;;;;5089622;28;20091;-73
2023/01/16 12:23:47;;;;;;;3.00;2.00;;;2.50;99.90;;;;;;5105753;28;20032;-73
2023/01/16 12:26:21;;;;;;;2.53;2.03;;;2.60;99.90;;;;;;5107020;28;20113;-73
2023/01/16 12:28:49;;;;;;;2.88;1.77;;;2.60;99.90;;;;;;5106728;28;20047;-73
2023/01/16 12:31:38;;;;;;;2.90;2.00;;;2.60;99.90;;;;;;5107261;28;20048;-73
2023/01/16 12:34:09;;;;;;;3.00;1.85;;;2.60;99.90;;;;;;5108424;28;20055;-73
2023/01/16 12:36:35;;;;;;;4.57;2.22;;;2.60;99.90;;;;;;5087127;28;20067;-73
2023/01/16 12:39:28;;;;;;;4.27;2.23;;;2.70;99.90;;;;;;5107537;28;20044;-73
2023/01/16 12:45:24;;;;;;;4.40;2.50;;;2.70;99.90;;;;;;5105044;28;20042;-73
2023/01/16 12:48:07;;;;;;;4.07;2.50;;;2.70;99.90;;;;;;5097275;28;20070;-73
2023/01/16 12:50:33;;;;;;;3.63;2.70;;;2.70;99.90;;;;;;5107680;28;20177;-73
2023/01/16 12:53:12;;;;;;;4.50;2.43;;;2.70;99.90;;;;;;5105554;28;20044;-73
2023/01/16 12:56:03;;;;;;;5.05;2.88;;;2.80;99.90;;;;;;5106148;28;20177;-73
2023/01/16 12:58:38;;;;;;;5.47;2.85;;;2.80;99.90;;;;;;5107454;28;20100;-74
2023/01/16 13:01:10;;;;;;;6.28;3.20;;;2.80;99.90;;;;;;5091315;28;20082;-73
2023/01/16 13:03:50;;;;;;;3.88;3.20;;;2.80;99.90;;;;;;5092324;28;20034;-73
2023/01/16 13:06:40;;;;;;;6.25;3.03;;;2.80;99.90;;;;;;5107594;28;20039;-73
2023/01/16 13:09:19;;;;;;;5.40;3.22;;;2.90;99.90;;;;;;5105629;28;20040;-73
2023/01/16 13:15:09;;;;;;;7.50;3.55;;;2.90;99.90;;;;;;5095350;28;20032;-73
2023/01/16 13:18:12;;;;;;;5.65;3.80;;;3.00;99.90;;;;;;5106271;28;20040;-74
2023/01/16 13:20:38;;;;;;;5.47;4.10;;;3.00;99.90;;;;;;5101382;28;20055;-73
2023/01/16 13:23:22;;;;;;;6.23;3.63;;;3.10;99.90;;;;;;5104451;28;20125;-73
2023/01/16 13:25:56;;;;;;;4.57;3.50;;;3.10;99.90;;;;;;5103935;28;20122;-73
2023/01/16 13:28:21;;;;;;;10.98;4.22;;;3.10;99.90;;;;;;5103536;28;20047;-73
2023/01/16 13:30:48;;;;;;;6.23;3.63;;;3.10;99.90;;;;;;5099526;28;20039;-73
2023/01/16 13:33:19;;;;;;;8.70;3.90;;;3.20;99.90;;;;;;5068470;28;20044;-73
2023/01/16 13:36:05;;;;;;;6.90;4.25;;;3.20;99.90;;;;;;5094746;28;20040;-73
2023/01/16 13:38:49;;;;;;;6.50;3.90;;;3.20;99.90;;;;;;5102130;28;20147;-73
2023/01/16 13:41:19;;;;;;;5.93;3.95;;;3.20;99.90;;;;;;5100641;28;20036;-73
2023/01/16 13:46:36;;;;;;;6.70;4.32;;;3.30;99.90;;;;;;5102540;28;20040;-73
2023/01/16 13:49:05;;;;;;;6.10;4.80;;;3.30;99.90;;;;;;5101329;28;20040;-73
2023/01/16 13:51:39;;;;;;;6.43;4.60;;;3.30;99.90;;;;;;5099801;28;20039;-73
2023/01/16 13:54:17;;;;;;;6.47;4.88;;;3.30;99.90;;;;;;5101583;28;20043;-73
2023/01/16 13:56:54;;;;;;;6.45;3.72;;;3.30;99.90;;;;;;5101279;28;20040;-73
2023/01/16 13:59:40;;;;;;;6.38;3.65;;;3.30;99.90;;;;;;5101295;28;20044;-73
2023/01/16 14:02:26;;;;;;;4.95;3.70;;;3.30;99.90;;;;;;5082011;28;20036;-73
2023/01/16 14:05:26;;;;;;;5.63;3.80;;;3.30;99.90;;;;;;5102440;28;20066;-73
2023/01/16 14:10:42;;;;;;;4.90;3.50;;;3.40;99.90;;;;;;5098573;28;20165;-73
2023/01/16 14:13:40;;;;;;;6.07;4.03;;;3.40;99.90;;;;;;5102964;28;20047;-73
2023/01/16 14:16:30;;;;;;;6.18;3.70;;;3.40;99.90;;;;;;5102042;28;20047;-73
2023/01/16 14:18:56;;;;;;;5.78;4.53;;;3.30;99.90;;;;;;5085441;28;20044;-73
2023/01/16 14:21:28;;;;;;;4.83;3.97;;;3.40;99.90;;;;;;5097571;28;20119;-73